Terminal Aerodrome Forecast
Issued by NWS

Home | Current Version | Previous Version | Graphics & Text | Print | Product List | Glossary On
Versions: 1 2 3 4 5 6 7 8 9 10 11 12 13 14 15
985
FTUS43 KMPX 201138
TAFAXN
TAF
KAXN 201138Z 2012/2112 30007KT P6SM SCT090 SCT250
     FM201400 33006KT P6SM FEW250
     FM210300 VRB03KT P6SM FEW250=

USA.gov is the U.S. government's official web portal to all federal, state and local government web resources and services.